This is the latest recevied weather packets stored in our database for station/object DJ2RF. If no packets are shown the sender has not sent any weather packets the latest 1 day(s).
| Time | Temp. | Humidity | Pressure | Rain* | Wind** | Luminosity | Snow |
|---|---|---|---|---|---|---|---|
| 1836274534 | 12.22° C | 89% | 1023.6 hPa | 0 mm | 0 m/s | - | - |
| 1836274284 | 12.22° C | 89% | 1023.6 hPa | 0 mm | 0 m/s | - | - |
| 1836274044 | 12.22° C | 89% | 1023.8 hPa | 0 mm | 0 m/s | - | - |
| 1778033706 | 10.56° C | 83% | 1010 hPa | 0 mm | 0 m/s | - | - |
| 1778033107 | 10.56° C | 82% | 1010 hPa | 0 mm | 0 m/s | - | - |
| 1778032510 | 10.56° C | 82% | 1009.9 hPa | 0 mm | 0 m/s | - | - |
| 1778031912 | 11.11° C | 82% | 1010 hPa | 0 mm | 0 m/s | - | - |
| 1778031420 | 11.11° C | 83% | 1010.1 hPa | 0 mm | 0 m/s | - | - |
| 1778030880 | 11.11° C | 82% | 1010.2 hPa | 0 mm | 0 m/s | - | - |
| 1778030312 | 11.11° C | 82% | 1010.2 hPa | 0 mm | 0 m/s | - | - |
| 1778029795 | 11.11° C | 82% | 1010 hPa | 0 mm | 0 m/s | - | - |
| 1778029252 | 11.67° C | 81% | 1010 hPa | 0 mm | 0 m/s | - | - |
| 1778028657 | 11.67° C | 80% | 1010.1 hPa | 0 mm | 0 m/s | - | - |
| 1778028093 | 12.22° C | 80% | 1010.1 hPa | 0 mm | 0 m/s | - | - |
| 1778027547 | 12.22° C | 80% | 1010.2 hPa | 0 mm | 0 m/s | - | - |
| 1778027010 | 12.22° C | 80% | 1010.2 hPa | 0 mm | 0 m/s | - | - |
| 1778026518 | 12.22° C | 79% | 1010.1 hPa | 0 mm | 0 m/s | - | - |
| 1778026011 | 12.22° C | 79% | 1010.3 hPa | 0 mm | 0 m/s | - | - |
| 1778025461 | 12.78° C | 79% | 1010.3 hPa | 0 mm | 0 m/s | - | - |
| 1778024950 | 12.78° C | 78% | 1010.4 hPa | 0 mm | 0 m/s | - | - |
| 1778024471 | 12.78° C | 78% | 1010.5 hPa | 0 mm | 0 m/s | - | - |
| 1778023889 | 12.78° C | 78% | 1010.6 hPa | 0 mm | 0 m/s | - | - |
| 1778023291 | 13.33° C | 78% | 1010.7 hPa | 0 mm | 0 m/s | - | - |
| 1778022743 | 13.33° C | 78% | 1010.7 hPa | 0 mm | 0 m/s | - | - |
| 1778022157 | 13.33° C | 78% | 1010.8 hPa | 0 mm | 0 m/s | - | - |
* Rain latest hour (hover to see other rain measurements)
** Current wind speed in m/s (hover to see current wind gust speed)